Mikasa — JD3633 — position and weather

sailwx.info

Track history (hours):
 
Tides and Currents Weather Stations Pressure Air Temp Water Temp Dewpoint Dewpoint Depression Visibility Wind Speed Wind Dir Waves Ship Positions

Mikasa

Last reported at 2017-Nov-18 04:03 UTC. Time now 2017-Nov-18 17:59 UTC.
Position N 34°37' E 135°01'.

Length 64 m; draft 4 m.

Type: Tanker. MMSI: 431005138.

Date/timePositionNaut miles runAvg speedWind from/ knotsBaromVisibWave heightAir tempDewpointWater temp
2017-Nov-18 04:03N 34°37' E 135°01'1 8.7
2017-Nov-18 03:58N 34°37' E 135°02'511.2
2017-Nov-18 03:30N 34°37' E 135°08'713.5
2017-Nov-18 03:00N 34°38' E 135°16'713.2
2017-Nov-18 02:30N 34°41' E 135°24'1 1.1
2017-Nov-18 02:00N 34°41' E 135°24'0 0.0
2017-Nov-18 01:28N 34°41' E 135°24'0 0.0
2017-Nov-18 01:00N 34°41' E 135°24'0 0.0
2017-Nov-18 00:30N 34°41' E 135°24'0 0.0
2017-Nov-18 00:00N 34°41' E 135°24'2 3.1
2017-Nov-17 23:30N 34°40' E 135°23'0 0.1
2017-Nov-17 23:00N 34°40' E 135°23'0 0.1
2017-Nov-17 22:30N 34°40' E 135°23'0 0.1
2017-Nov-17 22:00N 34°40' E 135°23'0 0.1
2017-Nov-17 21:30N 34°40' E 135°23'0 0.0
2017-Nov-17 21:00N 34°40' E 135°23'0 0.0
2017-Nov-17 20:30N 34°40' E 135°23'0 0.1
2017-Nov-17 20:00N 34°40' E 135°23'0 0.1
2017-Nov-17 19:30N 34°40' E 135°23'0 0.0
2017-Nov-17 19:00N 34°40' E 135°23'0 0.0
2017-Nov-17 18:30N 34°40' E 135°23'0 0.0
2017-Nov-17 18:00N 34°40' E 135°23'0 0.0
2017-Nov-17 17:30N 34°40' E 135°23'0 0.1
2017-Nov-17 17:00N 34°40' E 135°23'0 0.1
2017-Nov-17 16:30N 34°40' E 135°23'0 0.1
2017-Nov-17 16:00N 34°40' E 135°23'611.2
2017-Nov-17 15:30N 34°38' E 135°17'611.7
2017-Nov-17 15:00N 34°36' E 135°10'612.2
2017-Nov-17 14:30N 34°36' E 135°03'  
2017-Nov-12 03:07N 34°37' E 135°01'213.0
2017-Nov-12 03:00N 34°36' E 135°03'612.4
2017-Nov-12 02:30N 34°37' E 135°10'612.9
2017-Nov-12 02:00N 34°39' E 135°18'611.9
2017-Nov-12 01:30N 34°41' E 135°24'0 0.1
2017-Nov-12 01:00N 34°41' E 135°24'0 0.0
2017-Nov-12 00:30N 34°41' E 135°24'0 0.0
2017-Nov-12 00:00N 34°41' E 135°24'0 0.0
2017-Nov-11 23:30N 34°41' E 135°24'0 0.0
2017-Nov-11 23:00N 34°41' E 135°24'1 2.8
2017-Nov-11 22:30N 34°40' E 135°23'0 0.0
2017-Nov-11 22:00N 34°40' E 135°23'0 0.0
2017-Nov-11 21:30N 34°40' E 135°23'0 0.0
2017-Nov-11 21:00N 34°40' E 135°23'0 0.0
2017-Nov-11 20:30N 34°40' E 135°23'0 0.0
2017-Nov-11 20:00N 34°40' E 135°23'0 0.0
2017-Nov-11 19:30N 34°40' E 135°23'0 0.0
2017-Nov-11 19:00N 34°40' E 135°23'0 0.0
2017-Nov-11 18:30N 34°40' E 135°23'0 0.0
2017-Nov-11 18:00N 34°40' E 135°23'0 0.0
2017-Nov-11 17:30N 34°40' E 135°23'0 0.0
2017-Nov-11 16:59N 34°40' E 135°23'0 0.0
2017-Nov-11 16:30N 34°40' E 135°23'0 0.0
2017-Nov-11 16:00N 34°40' E 135°23'0 0.0
2017-Nov-11 15:30N 34°40' E 135°23'0 0.0
2017-Nov-11 15:00N 34°40' E 135°23'0 0.0
2017-Nov-11 14:30N 34°40' E 135°23'0 0.0
2017-Nov-11 14:00N 34°40' E 135°23'0 0.0
2017-Nov-11 13:30N 34°40' E 135°23'0 0.0
2017-Nov-11 13:00N 34°40' E 135°23'0 0.0
2017-Nov-11 12:30N 34°40' E 135°23'0 0.1
2017-Nov-11 12:01N 34°40' E 135°23'510.8
2017-Nov-11 11:30N 34°38' E 135°17'612.1
2017-Nov-11 11:00N 34°36' E 135°10'611.5
2017-Nov-11 10:30N 34°36' E 135°03'5 0.2
2017-Nov-10 02:32N 34°37' E 134°56'214.9
2017-Nov-10 02:24N 34°37' E 134°58'614.8
2017-Nov-10 02:00N 34°36' E 135°06'713.1
2017-Nov-10 01:30N 34°38' E 135°13'612.9
2017-Nov-10 01:00N 34°40' E 135°21'3 6.1
2017-Nov-10 00:30N 34°41' E 135°24'0 0.0
2017-Nov-10 00:00N 34°41' E 135°24'0 0.0
2017-Nov-09 23:30N 34°41' E 135°24'0 0.0
2017-Nov-09 23:00N 34°41' E 135°24'1 2.7
2017-Nov-09 22:28N 34°40' E 135°23'0 0.0
2017-Nov-09 22:00N 34°40' E 135°23'0 0.0
2017-Nov-09 21:30N 34°40' E 135°23'0 0.0
2017-Nov-09 21:00N 34°40' E 135°23'0 0.0
2017-Nov-09 20:30N 34°40' E 135°23'0 0.0
2017-Nov-09 20:00N 34°40' E 135°23'0 0.0
2017-Nov-09 19:30N 34°40' E 135°23'0 0.0
2017-Nov-09 19:00N 34°40' E 135°23'0 0.0
2017-Nov-09 18:30N 34°40' E 135°23'0 0.0
2017-Nov-09 18:00N 34°40' E 135°23'0 0.0
2017-Nov-09 17:30N 34°40' E 135°23'0 0.0
2017-Nov-09 17:00N 34°40' E 135°23'0 0.0
2017-Nov-09 16:30N 34°40' E 135°23'0 0.0
2017-Nov-09 16:00N 34°40' E 135°23'0 0.0
2017-Nov-09 15:30N 34°40' E 135°23'0 0.0
2017-Nov-09 15:00N 34°40' E 135°23'0 0.0
2017-Nov-09 14:30N 34°40' E 135°23'0 0.0
2017-Nov-09 14:00N 34°40' E 135°23'0 0.0
2017-Nov-09 13:30N 34°40' E 135°23'0 0.0
2017-Nov-09 13:00N 34°40' E 135°23'0 0.0
2017-Nov-09 12:30N 34°40' E 135°23'0 0.0
2017-Nov-09 12:00N 34°40' E 135°23'0 0.0
2017-Nov-09 11:30N 34°40' E 135°23'0 0.0
2017-Nov-09 11:00N 34°40' E 135°23'0 0.0
2017-Nov-09 10:30N 34°40' E 135°23'0 0.0
2017-Nov-09 10:00N 34°40' E 135°23'0 0.0
2017-Nov-09 09:30N 34°40' E 135°23'0 0.0
2017-Nov-09 09:00N 34°40' E 135°23'0 0.0
2017-Nov-09 08:30N 34°40' E 135°23'0 0.0
2017-Nov-09 08:00N 34°40' E 135°23'0 0.0
2017-Nov-09 07:30N 34°40' E 135°23'0 0.0
2017-Nov-09 07:00N 34°40' E 135°23'0 0.0
2017-Nov-09 06:30N 34°40' E 135°23'0 0.6
2017-Nov-09 06:00N 34°40' E 135°23'511.2
2017-Nov-09 05:30N 34°36' E 135°18'611.5
2017-Nov-09 05:00N 34°31' E 135°14'611.8
2017-Nov-09 04:28N 34°26' E 135°10'611.9
2017-Nov-09 03:58N 34°21' E 135°06'611.6
2017-Nov-09 03:28N 34°16' E 135°03'612.3
2017-Nov-09 03:00N 34°10' E 135°06'4 7.0
2017-Nov-09 02:30N 34°07' E 135°07'0 0.0
2017-Nov-09 01:59N 34°07' E 135°07'0 0.0
2017-Nov-09 01:14N 34°07' E 135°07'0 0.0
2017-Nov-09 01:00N 34°07' E 135°07'0 0.0
2017-Nov-09 00:30N 34°07' E 135°07'0 0.0
2017-Nov-09 00:00N 34°07' E 135°07'1 1.3
2017-Nov-08 23:29N 34°08' E 135°07'3 6.9
2017-Nov-08 23:00N 34°11' E 135°05'4 8.7
2017-Nov-08 22:30N 34°15' E 135°04'1010.0
2017-Nov-08 21:29N 34°24' E 135°09'712.3
2017-Nov-08 20:58N 34°28' E 135°15'612.4
2017-Nov-08 20:30N 34°31' E 135°21'3 0.9
2017-Nov-08 16:57N 34°31' E 135°24'0 0.0
2017-Nov-08 16:26N 34°31' E 135°24'  
Track history (hours):
 
Tides and Currents Weather Stations Pressure Air Temp Water Temp Dewpoint Dewpoint Depression Visibility Wind Speed Wind Dir Waves Ship Positions

Mikasa

Last reported at 2017-Nov-18 04:03 UTC. Time now 2017-Nov-18 17:59 UTC.
Position N 34°37' E 135°01'.

Length 64 m; draft 4 m.

Type: Tanker. MMSI: 431005138.

Date/timePositionNaut miles runAvg speedWind from/ knotsBaromVisibWave heightAir tempDewpointWater temp
2017-Nov-18 04:03N 34°37' E 135°01'1 8.7
2017-Nov-18 03:58N 34°37' E 135°02'511.2
2017-Nov-18 03:30N 34°37' E 135°08'713.5
2017-Nov-18 03:00N 34°38' E 135°16'713.2
2017-Nov-18 02:30N 34°41' E 135°24'1 1.1
2017-Nov-18 02:00N 34°41' E 135°24'0 0.0
2017-Nov-18 01:28N 34°41' E 135°24'0 0.0
2017-Nov-18 01:00N 34°41' E 135°24'0 0.0
2017-Nov-18 00:30N 34°41' E 135°24'0 0.0
2017-Nov-18 00:00N 34°41' E 135°24'2 3.1
2017-Nov-17 23:30N 34°40' E 135°23'0 0.1
2017-Nov-17 23:00N 34°40' E 135°23'0 0.1
2017-Nov-17 22:30N 34°40' E 135°23'0 0.1
2017-Nov-17 22:00N 34°40' E 135°23'0 0.1
2017-Nov-17 21:30N 34°40' E 135°23'0 0.0
2017-Nov-17 21:00N 34°40' E 135°23'0 0.0
2017-Nov-17 20:30N 34°40' E 135°23'0 0.1
2017-Nov-17 20:00N 34°40' E 135°23'0 0.1
2017-Nov-17 19:30N 34°40' E 135°23'0 0.0
2017-Nov-17 19:00N 34°40' E 135°23'0 0.0
2017-Nov-17 18:30N 34°40' E 135°23'0 0.0
2017-Nov-17 18:00N 34°40' E 135°23'0 0.0
2017-Nov-17 17:30N 34°40' E 135°23'0 0.1
2017-Nov-17 17:00N 34°40' E 135°23'0 0.1
2017-Nov-17 16:30N 34°40' E 135°23'0 0.1
2017-Nov-17 16:00N 34°40' E 135°23'611.2
2017-Nov-17 15:30N 34°38' E 135°17'611.7
2017-Nov-17 15:00N 34°36' E 135°10'612.2
2017-Nov-17 14:30N 34°36' E 135°03'  
2017-Nov-12 03:07N 34°37' E 135°01'213.0
2017-Nov-12 03:00N 34°36' E 135°03'612.4
2017-Nov-12 02:30N 34°37' E 135°10'612.9
2017-Nov-12 02:00N 34°39' E 135°18'611.9
2017-Nov-12 01:30N 34°41' E 135°24'0 0.1
2017-Nov-12 01:00N 34°41' E 135°24'0 0.0
2017-Nov-12 00:30N 34°41' E 135°24'0 0.0
2017-Nov-12 00:00N 34°41' E 135°24'0 0.0
2017-Nov-11 23:30N 34°41' E 135°24'0 0.0
2017-Nov-11 23:00N 34°41' E 135°24'1 2.8
2017-Nov-11 22:30N 34°40' E 135°23'0 0.0
2017-Nov-11 22:00N 34°40' E 135°23'0 0.0
2017-Nov-11 21:30N 34°40' E 135°23'0 0.0
2017-Nov-11 21:00N 34°40' E 135°23'0 0.0
2017-Nov-11 20:30N 34°40' E 135°23'0 0.0
2017-Nov-11 20:00N 34°40' E 135°23'0 0.0
2017-Nov-11 19:30N 34°40' E 135°23'0 0.0
2017-Nov-11 19:00N 34°40' E 135°23'0 0.0
2017-Nov-11 18:30N 34°40' E 135°23'0 0.0
2017-Nov-11 18:00N 34°40' E 135°23'0 0.0
2017-Nov-11 17:30N 34°40' E 135°23'0 0.0
2017-Nov-11 16:59N 34°40' E 135°23'0 0.0
2017-Nov-11 16:30N 34°40' E 135°23'0 0.0
2017-Nov-11 16:00N 34°40' E 135°23'0 0.0
2017-Nov-11 15:30N 34°40' E 135°23'0 0.0
2017-Nov-11 15:00N 34°40' E 135°23'0 0.0
2017-Nov-11 14:30N 34°40' E 135°23'0 0.0
2017-Nov-11 14:00N 34°40' E 135°23'0 0.0
2017-Nov-11 13:30N 34°40' E 135°23'0 0.0
2017-Nov-11 13:00N 34°40' E 135°23'0 0.0
2017-Nov-11 12:30N 34°40' E 135°23'0 0.1
2017-Nov-11 12:01N 34°40' E 135°23'510.8
2017-Nov-11 11:30N 34°38' E 135°17'612.1
2017-Nov-11 11:00N 34°36' E 135°10'611.5
2017-Nov-11 10:30N 34°36' E 135°03'5 0.2
2017-Nov-10 02:32N 34°37' E 134°56'214.9
2017-Nov-10 02:24N 34°37' E 134°58'614.8
2017-Nov-10 02:00N 34°36' E 135°06'713.1
2017-Nov-10 01:30N 34°38' E 135°13'612.9
2017-Nov-10 01:00N 34°40' E 135°21'3 6.1
2017-Nov-10 00:30N 34°41' E 135°24'0 0.0
2017-Nov-10 00:00N 34°41' E 135°24'0 0.0
2017-Nov-09 23:30N 34°41' E 135°24'0 0.0
2017-Nov-09 23:00N 34°41' E 135°24'1 2.7
2017-Nov-09 22:28N 34°40' E 135°23'0 0.0
2017-Nov-09 22:00N 34°40' E 135°23'0 0.0
2017-Nov-09 21:30N 34°40' E 135°23'0 0.0
2017-Nov-09 21:00N 34°40' E 135°23'0 0.0
2017-Nov-09 20:30N 34°40' E 135°23'0 0.0
2017-Nov-09 20:00N 34°40' E 135°23'0 0.0
2017-Nov-09 19:30N 34°40' E 135°23'0 0.0
2017-Nov-09 19:00N 34°40' E 135°23'0 0.0
2017-Nov-09 18:30N 34°40' E 135°23'0 0.0
2017-Nov-09 18:00N 34°40' E 135°23'0 0.0
2017-Nov-09 17:30N 34°40' E 135°23'0 0.0
2017-Nov-09 17:00N 34°40' E 135°23'0 0.0
2017-Nov-09 16:30N 34°40' E 135°23'0 0.0
2017-Nov-09 16:00N 34°40' E 135°23'0 0.0
2017-Nov-09 15:30N 34°40' E 135°23'0 0.0
2017-Nov-09 15:00N 34°40' E 135°23'0 0.0
2017-Nov-09 14:30N 34°40' E 135°23'0 0.0
2017-Nov-09 14:00N 34°40' E 135°23'0 0.0
2017-Nov-09 13:30N 34°40' E 135°23'0 0.0
2017-Nov-09 13:00N 34°40' E 135°23'0 0.0
2017-Nov-09 12:30N 34°40' E 135°23'0 0.0
2017-Nov-09 12:00N 34°40' E 135°23'0 0.0
2017-Nov-09 11:30N 34°40' E 135°23'0 0.0
2017-Nov-09 11:00N 34°40' E 135°23'0 0.0
2017-Nov-09 10:30N 34°40' E 135°23'0 0.0
2017-Nov-09 10:00N 34°40' E 135°23'0 0.0
2017-Nov-09 09:30N 34°40' E 135°23'0 0.0
2017-Nov-09 09:00N 34°40' E 135°23'0 0.0
2017-Nov-09 08:30N 34°40' E 135°23'0 0.0
2017-Nov-09 08:00N 34°40' E 135°23'0 0.0
2017-Nov-09 07:30N 34°40' E 135°23'0 0.0
2017-Nov-09 07:00N 34°40' E 135°23'0 0.0
2017-Nov-09 06:30N 34°40' E 135°23'0 0.6
2017-Nov-09 06:00N 34°40' E 135°23'511.2
2017-Nov-09 05:30N 34°36' E 135°18'611.5
2017-Nov-09 05:00N 34°31' E 135°14'611.8
2017-Nov-09 04:28N 34°26' E 135°10'611.9
2017-Nov-09 03:58N 34°21' E 135°06'611.6
2017-Nov-09 03:28N 34°16' E 135°03'612.3
2017-Nov-09 03:00N 34°10' E 135°06'4 7.0
2017-Nov-09 02:30N 34°07' E 135°07'0 0.0
2017-Nov-09 01:59N 34°07' E 135°07'0 0.0
2017-Nov-09 01:14N 34°07' E 135°07'0 0.0
2017-Nov-09 01:00N 34°07' E 135°07'0 0.0
2017-Nov-09 00:30N 34°07' E 135°07'0 0.0
2017-Nov-09 00:00N 34°07' E 135°07'1 1.3
2017-Nov-08 23:29N 34°08' E 135°07'3 6.9
2017-Nov-08 23:00N 34°11' E 135°05'4 8.7
2017-Nov-08 22:30N 34°15' E 135°04'1010.0
2017-Nov-08 21:29N 34°24' E 135°09'712.3
2017-Nov-08 20:58N 34°28' E 135°15'612.4
2017-Nov-08 20:30N 34°31' E 135°21'3 0.9
2017-Nov-08 16:57N 34°31' E 135°24'0 0.0
2017-Nov-08 16:26N 34°31' E 135°24'  

Dump ship's entire track history